sensor_id;sensor_type;location;lat;lon;timestamp;P1;durP1;ratioP1;P2;durP2;ratioP2
9370;SDS011;4725;48.384;8.984;2022-08-18T00:01:39;5.80;;;2.78;;
9370;SDS011;4725;48.384;8.984;2022-08-18T00:04:07;3.67;;;2.92;;
9370;SDS011;4725;48.384;8.984;2022-08-18T00:06:35;7.88;;;3.42;;
9370;SDS011;4725;48.384;8.984;2022-08-18T00:09:04;6.70;;;2.70;;
9370;SDS011;4725;48.384;8.984;2022-08-18T00:11:33;4.57;;;3.50;;
9370;SDS011;4725;48.384;8.984;2022-08-18T00:14:02;3.28;;;2.90;;
9370;SDS011;4725;48.384;8.984;2022-08-18T00:16:29;6.07;;;3.45;;
9370;SDS011;4725;48.384;8.984;2022-08-18T00:18:56;4.22;;;3.42;;
9370;SDS011;4725;48.384;8.984;2022-08-18T00:21:24;5.03;;;3.55;;
9370;SDS011;4725;48.384;8.984;2022-08-18T00:23:51;4.38;;;3.47;;
9370;SDS011;4725;48.384;8.984;2022-08-18T00:26:19;5.68;;;3.50;;
9370;SDS011;4725;48.384;8.984;2022-08-18T00:28:46;3.63;;;2.97;;
9370;SDS011;4725;48.384;8.984;2022-08-18T00:31:13;3.83;;;3.00;;
9370;SDS011;4725;48.384;8.984;2022-08-18T00:33:40;5.25;;;3.22;;
9370;SDS011;4725;48.384;8.984;2022-08-18T00:36:08;4.80;;;3.40;;
9370;SDS011;4725;48.384;8.984;2022-08-18T00:38:36;3.95;;;3.30;;
9370;SDS011;4725;48.384;8.984;2022-08-18T00:41:04;5.15;;;3.38;;
9370;SDS011;4725;48.384;8.984;2022-08-18T00:43:35;4.00;;;3.28;;
9370;SDS011;4725;48.384;8.984;2022-08-18T00:46:06;6.20;;;3.45;;
9370;SDS011;4725;48.384;8.984;2022-08-18T00:48:34;4.43;;;2.88;;
9370;SDS011;4725;48.384;8.984;2022-08-18T00:51:03;4.53;;;3.33;;
9370;SDS011;4725;48.384;8.984;2022-08-18T00:53:34;4.43;;;3.30;;
9370;SDS011;4725;48.384;8.984;2022-08-18T00:56:10;3.97;;;3.00;;
9370;SDS011;4725;48.384;8.984;2022-08-18T00:58:42;4.28;;;3.63;;
9370;SDS011;4725;48.384;8.984;2022-08-18T01:01:13;4.32;;;3.17;;
9370;SDS011;4725;48.384;8.984;2022-08-18T01:03:42;3.83;;;3.30;;
9370;SDS011;4725;48.384;8.984;2022-08-18T01:06:20;4.75;;;3.45;;
9370;SDS011;4725;48.384;8.984;2022-08-18T01:08:54;4.43;;;3.65;;
9370;SDS011;4725;48.384;8.984;2022-08-18T01:11:21;5.45;;;3.50;;
9370;SDS011;4725;48.384;8.984;2022-08-18T01:13:48;5.45;;;3.45;;
9370;SDS011;4725;48.384;8.984;2022-08-18T01:16:15;9.95;;;4.03;;
9370;SDS011;4725;48.384;8.984;2022-08-18T01:19:00;7.68;;;3.10;;
9370;SDS011;4725;48.384;8.984;2022-08-18T01:21:46;4.28;;;3.88;;
9370;SDS011;4725;48.384;8.984;2022-08-18T01:24:19;3.85;;;3.45;;
9370;SDS011;4725;48.384;8.984;2022-08-18T01:27:10;4.40;;;3.28;;
9370;SDS011;4725;48.384;8.984;2022-08-18T01:29:39;5.70;;;3.50;;
9370;SDS011;4725;48.384;8.984;2022-08-18T01:32:06;5.47;;;3.28;;
9370;SDS011;4725;48.384;8.984;2022-08-18T01:34:33;4.15;;;3.25;;
9370;SDS011;4725;48.384;8.984;2022-08-18T01:36:59;5.50;;;3.33;;
9370;SDS011;4725;48.384;8.984;2022-08-18T01:39:30;3.95;;;3.55;;
9370;SDS011;4725;48.384;8.984;2022-08-18T01:41:57;4.45;;;3.03;;
9370;SDS011;4725;48.384;8.984;2022-08-18T01:44:28;3.03;;;2.70;;
9370;SDS011;4725;48.384;8.984;2022-08-18T01:46:55;3.92;;;2.92;;
9370;SDS011;4725;48.384;8.984;2022-08-18T01:49:22;4.80;;;2.95;;
9370;SDS011;4725;48.384;8.984;2022-08-18T01:51:49;4.57;;;3.60;;
9370;SDS011;4725;48.384;8.984;2022-08-18T01:54:16;4.57;;;3.60;;
9370;SDS011;4725;48.384;8.984;2022-08-18T01:56:45;3.35;;;2.85;;
9370;SDS011;4725;48.384;8.984;2022-08-18T01:59:13;4.45;;;3.55;;
9370;SDS011;4725;48.384;8.984;2022-08-18T02:01:42;5.07;;;3.57;;
9370;SDS011;4725;48.384;8.984;2022-08-18T02:04:12;6.00;;;3.75;;
9370;SDS011;4725;48.384;8.984;2022-08-18T02:06:41;7.17;;;3.80;;
9370;SDS011;4725;48.384;8.984;2022-08-18T02:09:08;6.07;;;3.80;;
9370;SDS011;4725;48.384;8.984;2022-08-18T02:11:35;4.23;;;3.60;;
9370;SDS011;4725;48.384;8.984;2022-08-18T02:14:03;5.37;;;3.90;;
9370;SDS011;4725;48.384;8.984;2022-08-18T02:16:31;6.28;;;3.85;;
9370;SDS011;4725;48.384;8.984;2022-08-18T02:18:58;4.83;;;3.57;;
9370;SDS011;4725;48.384;8.984;2022-08-18T02:21:25;4.15;;;3.60;;
9370;SDS011;4725;48.384;8.984;2022-08-18T02:23:52;3.90;;;3.50;;
9370;SDS011;4725;48.384;8.984;2022-08-18T02:26:19;5.17;;;3.60;;
9370;SDS011;4725;48.384;8.984;2022-08-18T02:28:47;4.67;;;3.93;;
9370;SDS011;4725;48.384;8.984;2022-08-18T02:31:17;5.53;;;4.10;;
9370;SDS011;4725;48.384;8.984;2022-08-18T02:33:45;7.93;;;4.22;;
9370;SDS011;4725;48.384;8.984;2022-08-18T02:36:12;5.13;;;3.70;;
9370;SDS011;4725;48.384;8.984;2022-08-18T02:38:40;4.55;;;3.67;;
9370;SDS011;4725;48.384;8.984;2022-08-18T02:41:08;4.85;;;4.28;;
9370;SDS011;4725;48.384;8.984;2022-08-18T02:43:39;3.67;;;3.38;;
9370;SDS011;4725;48.384;8.984;2022-08-18T02:46:07;3.90;;;3.35;;
9370;SDS011;4725;48.384;8.984;2022-08-18T02:48:36;6.07;;;4.30;;
9370;SDS011;4725;48.384;8.984;2022-08-18T02:51:04;4.60;;;3.90;;
9370;SDS011;4725;48.384;8.984;2022-08-18T02:53:33;4.68;;;3.83;;
9370;SDS011;4725;48.384;8.984;2022-08-18T02:56:04;4.53;;;4.07;;
9370;SDS011;4725;48.384;8.984;2022-08-18T02:58:47;4.85;;;4.35;;
9370;SDS011;4725;48.384;8.984;2022-08-18T03:01:15;4.82;;;3.88;;
9370;SDS011;4725;48.384;8.984;2022-08-18T03:03:43;5.57;;;4.07;;
9370;SDS011;4725;48.384;8.984;2022-08-18T03:06:10;10.65;;;4.40;;
9370;SDS011;4725;48.384;8.984;2022-08-18T03:08:37;6.20;;;4.32;;
9370;SDS011;4725;48.384;8.984;2022-08-18T03:11:04;7.22;;;3.92;;
9370;SDS011;4725;48.384;8.984;2022-08-18T03:13:31;4.65;;;3.85;;
9370;SDS011;4725;48.384;8.984;2022-08-18T03:15:58;3.58;;;3.25;;
9370;SDS011;4725;48.384;8.984;2022-08-18T03:18:25;4.30;;;3.90;;
9370;SDS011;4725;48.384;8.984;2022-08-18T03:20:54;4.53;;;3.75;;
9370;SDS011;4725;48.384;8.984;2022-08-18T03:23:22;5.57;;;4.00;;
9370;SDS011;4725;48.384;8.984;2022-08-18T03:25:49;6.07;;;4.03;;
9370;SDS011;4725;48.384;8.984;2022-08-18T03:28:16;6.45;;;4.05;;
9370;SDS011;4725;48.384;8.984;2022-08-18T03:30:43;4.72;;;4.32;;
9370;SDS011;4725;48.384;8.984;2022-08-18T03:33:10;4.90;;;4.18;;
9370;SDS011;4725;48.384;8.984;2022-08-18T03:35:37;6.53;;;4.07;;
9370;SDS011;4725;48.384;8.984;2022-08-18T03:38:06;8.27;;;4.18;;
9370;SDS011;4725;48.384;8.984;2022-08-18T03:40:34;5.15;;;4.25;;
9370;SDS011;4725;48.384;8.984;2022-08-18T03:43:01;5.28;;;4.35;;
9370;SDS011;4725;48.384;8.984;2022-08-18T03:45:30;4.72;;;4.22;;
9370;SDS011;4725;48.384;8.984;2022-08-18T03:47:58;10.90;;;4.93;;
9370;SDS011;4725;48.384;8.984;2022-08-18T03:50:25;11.40;;;4.95;;
9370;SDS011;4725;48.384;8.984;2022-08-18T03:52:52;6.85;;;5.03;;
9370;SDS011;4725;48.384;8.984;2022-08-18T03:55:24;8.07;;;5.15;;
9370;SDS011;4725;48.384;8.984;2022-08-18T03:57:56;5.57;;;5.00;;
9370;SDS011;4725;48.384;8.984;2022-08-18T04:00:26;9.77;;;4.30;;
9370;SDS011;4725;48.384;8.984;2022-08-18T04:02:54;9.55;;;4.80;;
9370;SDS011;4725;48.384;8.984;2022-08-18T04:05:21;5.95;;;5.35;;
9370;SDS011;4725;48.384;8.984;2022-08-18T04:07:48;5.90;;;4.75;;
9370;SDS011;4725;48.384;8.984;2022-08-18T04:10:15;10.02;;;5.38;;
9370;SDS011;4725;48.384;8.984;2022-08-18T04:12:43;9.13;;;5.43;;
9370;SDS011;4725;48.384;8.984;2022-08-18T04:15:10;5.88;;;5.28;;
9370;SDS011;4725;48.384;8.984;2022-08-18T04:17:37;6.93;;;5.60;;
9370;SDS011;4725;48.384;8.984;2022-08-18T04:20:04;9.32;;;5.40;;
9370;SDS011;4725;48.384;8.984;2022-08-18T04:22:31;6.82;;;5.03;;
9370;SDS011;4725;48.384;8.984;2022-08-18T04:24:59;6.65;;;5.47;;
9370;SDS011;4725;48.384;8.984;2022-08-18T04:27:26;6.60;;;5.35;;
9370;SDS011;4725;48.384;8.984;2022-08-18T04:29:55;8.02;;;5.88;;
9370;SDS011;4725;48.384;8.984;2022-08-18T04:32:22;9.43;;;5.68;;
9370;SDS011;4725;48.384;8.984;2022-08-18T04:34:50;7.90;;;5.80;;
9370;SDS011;4725;48.384;8.984;2022-08-18T04:37:17;9.30;;;6.00;;
9370;SDS011;4725;48.384;8.984;2022-08-18T04:39:44;6.22;;;5.53;;
9370;SDS011;4725;48.384;8.984;2022-08-18T04:42:11;7.70;;;5.22;;
9370;SDS011;4725;48.384;8.984;2022-08-18T04:44:39;7.63;;;5.60;;
9370;SDS011;4725;48.384;8.984;2022-08-18T04:47:07;6.72;;;6.00;;
9370;SDS011;4725;48.384;8.984;2022-08-18T04:49:36;6.95;;;6.25;;
9370;SDS011;4725;48.384;8.984;2022-08-18T04:52:04;6.53;;;5.30;;
9370;SDS011;4725;48.384;8.984;2022-08-18T04:54:49;6.00;;;5.35;;
9370;SDS011;4725;48.384;8.984;2022-08-18T04:57:17;6.70;;;5.88;;
9370;SDS011;4725;48.384;8.984;2022-08-18T04:59:45;6.88;;;6.10;;
9370;SDS011;4725;48.384;8.984;2022-08-18T05:02:15;11.45;;;6.30;;
9370;SDS011;4725;48.384;8.984;2022-08-18T05:04:44;9.70;;;6.70;;
9370;SDS011;4725;48.384;8.984;2022-08-18T05:07:12;6.88;;;6.20;;
9370;SDS011;4725;48.384;8.984;2022-08-18T05:09:40;7.88;;;6.95;;
9370;SDS011;4725;48.384;8.984;2022-08-18T05:12:09;11.90;;;8.15;;
9370;SDS011;4725;48.384;8.984;2022-08-18T05:14:37;8.48;;;7.68;;
9370;SDS011;4725;48.384;8.984;2022-08-18T05:17:04;8.38;;;6.88;;
9370;SDS011;4725;48.384;8.984;2022-08-18T05:19:33;8.20;;;7.40;;
9370;SDS011;4725;48.384;8.984;2022-08-18T05:22:00;8.50;;;7.30;;
9370;SDS011;4725;48.384;8.984;2022-08-18T05:24:27;11.63;;;7.40;;
9370;SDS011;4725;48.384;8.984;2022-08-18T05:26:57;8.27;;;7.47;;
9370;SDS011;4725;48.384;8.984;2022-08-18T05:29:24;8.52;;;7.47;;
9370;SDS011;4725;48.384;8.984;2022-08-18T05:31:51;7.47;;;6.43;;
9370;SDS011;4725;48.384;8.984;2022-08-18T05:34:19;9.55;;;7.50;;
9370;SDS011;4725;48.384;8.984;2022-08-18T05:36:54;8.18;;;6.65;;
9370;SDS011;4725;48.384;8.984;2022-08-18T05:39:29;6.85;;;6.30;;
9370;SDS011;4725;48.384;8.984;2022-08-18T05:42:02;8.13;;;6.35;;
9370;SDS011;4725;48.384;8.984;2022-08-18T05:44:34;7.40;;;6.68;;
9370;SDS011;4725;48.384;8.984;2022-08-18T05:47:07;6.53;;;5.93;;
9370;SDS011;4725;48.384;8.984;2022-08-18T05:49:38;6.18;;;5.70;;
9370;SDS011;4725;48.384;8.984;2022-08-18T05:52:14;6.35;;;5.75;;
9370;SDS011;4725;48.384;8.984;2022-08-18T05:54:45;6.97;;;5.70;;
9370;SDS011;4725;48.384;8.984;2022-08-18T05:57:33;6.63;;;6.03;;
9370;SDS011;4725;48.384;8.984;2022-08-18T06:00:07;6.10;;;5.60;;
9370;SDS011;4725;48.384;8.984;2022-08-18T06:02:36;7.72;;;6.78;;
9370;SDS011;4725;48.384;8.984;2022-08-18T06:05:11;7.72;;;6.88;;
9370;SDS011;4725;48.384;8.984;2022-08-18T06:07:42;7.63;;;6.93;;
9370;SDS011;4725;48.384;8.984;2022-08-18T06:10:14;9.00;;;7.80;;
9370;SDS011;4725;48.384;8.984;2022-08-18T06:12:43;7.40;;;6.70;;
9370;SDS011;4725;48.384;8.984;2022-08-18T06:15:12;12.10;;;7.60;;
9370;SDS011;4725;48.384;8.984;2022-08-18T06:17:57;7.40;;;6.65;;
9370;SDS011;4725;48.384;8.984;2022-08-18T06:20:40;7.32;;;6.63;;
9370;SDS011;4725;48.384;8.984;2022-08-18T06:23:31;7.10;;;6.40;;
9370;SDS011;4725;48.384;8.984;2022-08-18T06:26:07;11.13;;;7.10;;
9370;SDS011;4725;48.384;8.984;2022-08-18T06:28:42;7.00;;;6.30;;
9370;SDS011;4725;48.384;8.984;2022-08-18T06:31:19;8.02;;;6.35;;
9370;SDS011;4725;48.384;8.984;2022-08-18T06:33:52;7.80;;;6.45;;
9370;SDS011;4725;48.384;8.984;2022-08-18T06:36:31;7.95;;;6.78;;
9370;SDS011;4725;48.384;8.984;2022-08-18T06:39:07;10.63;;;6.70;;
9370;SDS011;4725;48.384;8.984;2022-08-18T06:41:45;9.18;;;8.32;;
9370;SDS011;4725;48.384;8.984;2022-08-18T06:44:16;7.20;;;6.40;;
9370;SDS011;4725;48.384;8.984;2022-08-18T06:46:48;6.80;;;6.20;;
9370;SDS011;4725;48.384;8.984;2022-08-18T06:49:22;7.13;;;6.43;;
9370;SDS011;4725;48.384;8.984;2022-08-18T06:51:58;9.02;;;7.60;;
9370;SDS011;4725;48.384;8.984;2022-08-18T06:54:43;8.38;;;6.85;;
9370;SDS011;4725;48.384;8.984;2022-08-18T06:57:19;7.95;;;7.15;;
9370;SDS011;4725;48.384;8.984;2022-08-18T06:59:53;8.80;;;6.57;;
9370;SDS011;4725;48.384;8.984;2022-08-18T07:02:24;7.05;;;6.20;;
9370;SDS011;4725;48.384;8.984;2022-08-18T07:05:00;7.47;;;6.65;;
9370;SDS011;4725;48.384;8.984;2022-08-18T07:07:31;6.75;;;6.15;;
9370;SDS011;4725;48.384;8.984;2022-08-18T07:10:02;8.05;;;6.82;;
9370;SDS011;4725;48.384;8.984;2022-08-18T07:12:32;11.13;;;7.10;;
9370;SDS011;4725;48.384;8.984;2022-08-18T07:15:00;8.40;;;7.53;;
9370;SDS011;4725;48.384;8.984;2022-08-18T07:17:32;7.53;;;6.80;;
9370;SDS011;4725;48.384;8.984;2022-08-18T07:20:04;6.78;;;6.18;;
9370;SDS011;4725;48.384;8.984;2022-08-18T07:25:20;6.40;;;5.80;;
9370;SDS011;4725;48.384;8.984;2022-08-18T07:27:50;7.75;;;7.05;;
9370;SDS011;4725;48.384;8.984;2022-08-18T07:30:31;10.27;;;7.97;;
9370;SDS011;4725;48.384;8.984;2022-08-18T07:33:08;9.93;;;8.93;;
9370;SDS011;4725;48.384;8.984;2022-08-18T07:35:44;7.32;;;6.72;;
9370;SDS011;4725;48.384;8.984;2022-08-18T07:38:15;7.68;;;6.97;;
9370;SDS011;4725;48.384;8.984;2022-08-18T07:40:50;7.53;;;6.80;;
9370;SDS011;4725;48.384;8.984;2022-08-18T07:43:34;8.90;;;6.90;;
9370;SDS011;4725;48.384;8.984;2022-08-18T07:46:17;6.88;;;6.28;;
9370;SDS011;4725;48.384;8.984;2022-08-18T07:48:48;6.95;;;6.25;;
9370;SDS011;4725;48.384;8.984;2022-08-18T07:51:18;7.90;;;6.28;;
9370;SDS011;4725;48.384;8.984;2022-08-18T07:53:50;6.85;;;5.75;;
9370;SDS011;4725;48.384;8.984;2022-08-18T07:56:26;7.65;;;5.63;;
9370;SDS011;4725;48.384;8.984;2022-08-18T07:59:00;7.53;;;5.65;;
9370;SDS011;4725;48.384;8.984;2022-08-18T08:01:33;6.57;;;5.85;;
9370;SDS011;4725;48.384;8.984;2022-08-18T08:04:07;4.88;;;4.47;;
9370;SDS011;4725;48.384;8.984;2022-08-18T08:06:40;6.45;;;5.35;;
9370;SDS011;4725;48.384;8.984;2022-08-18T08:09:11;6.53;;;5.93;;
9370;SDS011;4725;48.384;8.984;2022-08-18T08:11:56;6.00;;;5.50;;
9370;SDS011;4725;48.384;8.984;2022-08-18T08:14:36;8.23;;;5.85;;
9370;SDS011;4725;48.384;8.984;2022-08-18T08:17:12;9.45;;;6.88;;
9370;SDS011;4725;48.384;8.984;2022-08-18T08:19:55;6.75;;;6.13;;
9370;SDS011;4725;48.384;8.984;2022-08-18T08:22:55;7.20;;;6.18;;
9370;SDS011;4725;48.384;8.984;2022-08-18T08:25:30;6.55;;;5.88;;
9370;SDS011;4725;48.384;8.984;2022-08-18T08:28:10;6.72;;;6.05;;
9370;SDS011;4725;48.384;8.984;2022-08-18T08:30:48;6.30;;;5.75;;
9370;SDS011;4725;48.384;8.984;2022-08-18T08:33:22;9.32;;;6.97;;
9370;SDS011;4725;48.384;8.984;2022-08-18T08:35:55;7.72;;;6.32;;
9370;SDS011;4725;48.384;8.984;2022-08-18T08:38:30;7.32;;;5.88;;
9370;SDS011;4725;48.384;8.984;2022-08-18T08:41:07;10.20;;;6.57;;
9370;SDS011;4725;48.384;8.984;2022-08-18T08:43:39;6.90;;;6.25;;
9370;SDS011;4725;48.384;8.984;2022-08-18T08:46:09;10.27;;;7.75;;
9370;SDS011;4725;48.384;8.984;2022-08-18T08:48:42;8.50;;;6.93;;
9370;SDS011;4725;48.384;8.984;2022-08-18T08:51:23;7.50;;;6.72;;
9370;SDS011;4725;48.384;8.984;2022-08-18T08:53:57;7.25;;;6.55;;
9370;SDS011;4725;48.384;8.984;2022-08-18T08:56:29;7.28;;;6.57;;
9370;SDS011;4725;48.384;8.984;2022-08-18T08:59:02;8.18;;;5.45;;
9370;SDS011;4725;48.384;8.984;2022-08-18T09:01:33;7.43;;;6.45;;
9370;SDS011;4725;48.384;8.984;2022-08-18T09:04:07;5.63;;;5.13;;
9370;SDS011;4725;48.384;8.984;2022-08-18T09:06:48;6.55;;;5.65;;
9370;SDS011;4725;48.384;8.984;2022-08-18T09:09:26;6.00;;;5.45;;
9370;SDS011;4725;48.384;8.984;2022-08-18T09:12:16;5.20;;;4.80;;
9370;SDS011;4725;48.384;8.984;2022-08-18T09:15:15;5.43;;;4.93;;
9370;SDS011;4725;48.384;8.984;2022-08-18T09:21:12;6.18;;;4.63;;
9370;SDS011;4725;48.384;8.984;2022-08-18T09:23:47;5.32;;;4.75;;
9370;SDS011;4725;48.384;8.984;2022-08-18T09:26:21;5.75;;;4.80;;
9370;SDS011;4725;48.384;8.984;2022-08-18T09:29:11;4.40;;;4.10;;
9370;SDS011;4725;48.384;8.984;2022-08-18T09:31:43;4.80;;;4.40;;
9370;SDS011;4725;48.384;8.984;2022-08-18T09:37:07;6.30;;;5.20;;
9370;SDS011;4725;48.384;8.984;2022-08-18T09:39:41;6.68;;;6.15;;
9370;SDS011;4725;48.384;8.984;2022-08-18T09:42:36;7.57;;;4.05;;
9370;SDS011;4725;48.384;8.984;2022-08-18T09:45:09;5.28;;;4.80;;
9370;SDS011;4725;48.384;8.984;2022-08-18T09:47:59;6.10;;;5.10;;
9370;SDS011;4725;48.384;8.984;2022-08-18T09:50:37;5.13;;;4.65;;
9370;SDS011;4725;48.384;8.984;2022-08-18T09:56:04;7.15;;;5.22;;
9370;SDS011;4725;48.384;8.984;2022-08-18T10:01:34;7.75;;;4.72;;
9370;SDS011;4725;48.384;8.984;2022-08-18T10:07:17;5.40;;;4.90;;
9370;SDS011;4725;48.384;8.984;2022-08-18T10:09:50;5.82;;;4.68;;
9370;SDS011;4725;48.384;8.984;2022-08-18T10:15:19;4.90;;;4.40;;
9370;SDS011;4725;48.384;8.984;2022-08-18T10:21:08;3.90;;;3.60;;
9370;SDS011;4725;48.384;8.984;2022-08-18T10:38:24;6.22;;;5.13;;
9370;SDS011;4725;48.384;8.984;2022-08-18T10:41:12;5.00;;;4.57;;
9370;SDS011;4725;48.384;8.984;2022-08-18T10:43:48;5.45;;;4.80;;
9370;SDS011;4725;48.384;8.984;2022-08-18T10:46:19;4.80;;;4.15;;
9370;SDS011;4725;48.384;8.984;2022-08-18T10:48:58;5.20;;;4.63;;
9370;SDS011;4725;48.384;8.984;2022-08-18T10:51:30;5.93;;;5.35;;
9370;SDS011;4725;48.384;8.984;2022-08-18T10:54:14;5.55;;;5.05;;
9370;SDS011;4725;48.384;8.984;2022-08-18T10:56:51;4.60;;;4.20;;
9370;SDS011;4725;48.384;8.984;2022-08-18T10:59:24;4.78;;;4.38;;
9370;SDS011;4725;48.384;8.984;2022-08-18T11:01:59;5.65;;;4.55;;
9370;SDS011;4725;48.384;8.984;2022-08-18T11:04:35;4.68;;;4.20;;
9370;SDS011;4725;48.384;8.984;2022-08-18T11:07:08;8.13;;;4.63;;
9370;SDS011;4725;48.384;8.984;2022-08-18T11:09:40;4.22;;;3.83;;
9370;SDS011;4725;48.384;8.984;2022-08-18T11:12:10;5.78;;;4.70;;
9370;SDS011;4725;48.384;8.984;2022-08-18T11:14:53;5.32;;;4.57;;
9370;SDS011;4725;48.384;8.984;2022-08-18T11:17:43;7.75;;;5.60;;
9370;SDS011;4725;48.384;8.984;2022-08-18T11:20:19;6.22;;;5.22;;
9370;SDS011;4725;48.384;8.984;2022-08-18T11:22:56;7.32;;;5.15;;
9370;SDS011;4725;48.384;8.984;2022-08-18T11:25:27;5.78;;;4.95;;
9370;SDS011;4725;48.384;8.984;2022-08-18T11:27:55;6.53;;;5.82;;
9370;SDS011;4725;48.384;8.984;2022-08-18T11:30:24;6.22;;;5.30;;
9370;SDS011;4725;48.384;8.984;2022-08-18T11:32:54;6.32;;;5.18;;
9370;SDS011;4725;48.384;8.984;2022-08-18T11:35:23;6.88;;;5.38;;
9370;SDS011;4725;48.384;8.984;2022-08-18T11:37:54;5.47;;;4.97;;
9370;SDS011;4725;48.384;8.984;2022-08-18T11:40:32;5.15;;;4.65;;
9370;SDS011;4725;48.384;8.984;2022-08-18T11:43:04;9.52;;;5.97;;
9370;SDS011;4725;48.384;8.984;2022-08-18T11:45:47;6.70;;;6.00;;
9370;SDS011;4725;48.384;8.984;2022-08-18T11:48:21;7.25;;;6.53;;
9370;SDS011;4725;48.384;8.984;2022-08-18T11:50:59;6.38;;;5.78;;
9370;SDS011;4725;48.384;8.984;2022-08-18T11:53:35;7.88;;;5.40;;
9370;SDS011;4725;48.384;8.984;2022-08-18T11:56:14;6.53;;;5.13;;
9370;SDS011;4725;48.384;8.984;2022-08-18T11:58:44;9.57;;;5.13;;
9370;SDS011;4725;48.384;8.984;2022-08-18T12:01:29;6.00;;;4.68;;
9370;SDS011;4725;48.384;8.984;2022-08-18T12:04:06;7.10;;;4.55;;
9370;SDS011;4725;48.384;8.984;2022-08-18T12:06:39;5.35;;;4.90;;
9370;SDS011;4725;48.384;8.984;2022-08-18T12:09:21;5.00;;;4.60;;
9370;SDS011;4725;48.384;8.984;2022-08-18T12:11:53;5.60;;;4.75;;
9370;SDS011;4725;48.384;8.984;2022-08-18T12:14:30;4.95;;;4.30;;
9370;SDS011;4725;48.384;8.984;2022-08-18T12:17:00;5.78;;;5.28;;
9370;SDS011;4725;48.384;8.984;2022-08-18T12:19:29;7.85;;;4.50;;
9370;SDS011;4725;48.384;8.984;2022-08-18T12:21:57;6.38;;;5.43;;
9370;SDS011;4725;48.384;8.984;2022-08-18T12:24:26;7.25;;;5.80;;
9370;SDS011;4725;48.384;8.984;2022-08-18T12:26:57;5.97;;;5.38;;
9370;SDS011;4725;48.384;8.984;2022-08-18T12:29:25;5.07;;;4.68;;
9370;SDS011;4725;48.384;8.984;2022-08-18T12:31:53;6.60;;;5.97;;
9370;SDS011;4725;48.384;8.984;2022-08-18T12:34:21;4.93;;;4.53;;
9370;SDS011;4725;48.384;8.984;2022-08-18T12:36:50;7.28;;;4.82;;
9370;SDS011;4725;48.384;8.984;2022-08-18T12:39:18;5.15;;;4.32;;
9370;SDS011;4725;48.384;8.984;2022-08-18T12:41:46;10.82;;;6.03;;
9370;SDS011;4725;48.384;8.984;2022-08-18T12:44:14;7.38;;;5.10;;
9370;SDS011;4725;48.384;8.984;2022-08-18T12:46:41;6.10;;;5.50;;
9370;SDS011;4725;48.384;8.984;2022-08-18T12:49:10;12.43;;;5.38;;
9370;SDS011;4725;48.384;8.984;2022-08-18T12:51:41;6.28;;;5.10;;
9370;SDS011;4725;48.384;8.984;2022-08-18T12:54:09;5.25;;;4.75;;
9370;SDS011;4725;48.384;8.984;2022-08-18T12:56:36;6.22;;;5.47;;
9370;SDS011;4725;48.384;8.984;2022-08-18T12:59:06;6.05;;;5.55;;
9370;SDS011;4725;48.384;8.984;2022-08-18T13:01:36;9.63;;;5.63;;
9370;SDS011;4725;48.384;8.984;2022-08-18T13:04:04;7.38;;;5.93;;
9370;SDS011;4725;48.384;8.984;2022-08-18T13:06:32;6.22;;;5.72;;
9370;SDS011;4725;48.384;8.984;2022-08-18T13:09:05;6.00;;;5.40;;
9370;SDS011;4725;48.384;8.984;2022-08-18T13:11:33;6.63;;;5.93;;
9370;SDS011;4725;48.384;8.984;2022-08-18T13:14:01;7.68;;;6.97;;
9370;SDS011;4725;48.384;8.984;2022-08-18T13:16:28;7.00;;;6.32;;
9370;SDS011;4725;48.384;8.984;2022-08-18T13:19:01;8.45;;;6.53;;
9370;SDS011;4725;48.384;8.984;2022-08-18T13:21:30;8.07;;;6.03;;
9370;SDS011;4725;48.384;8.984;2022-08-18T13:23:56;6.40;;;5.78;;
9370;SDS011;4725;48.384;8.984;2022-08-18T13:26:25;6.03;;;5.35;;
9370;SDS011;4725;48.384;8.984;2022-08-18T13:28:54;8.05;;;6.72;;
9370;SDS011;4725;48.384;8.984;2022-08-18T13:31:24;9.18;;;6.20;;
9370;SDS011;4725;48.384;8.984;2022-08-18T13:33:52;8.18;;;6.30;;
9370;SDS011;4725;48.384;8.984;2022-08-18T13:36:21;9.05;;;5.78;;
9370;SDS011;4725;48.384;8.984;2022-08-18T13:38:48;7.55;;;6.82;;
9370;SDS011;4725;48.384;8.984;2022-08-18T13:41:16;6.22;;;5.63;;
9370;SDS011;4725;48.384;8.984;2022-08-18T13:43:43;7.10;;;6.05;;
9370;SDS011;4725;48.384;8.984;2022-08-18T13:46:11;6.15;;;5.65;;
9370;SDS011;4725;48.384;8.984;2022-08-18T13:48:41;6.22;;;5.63;;
9370;SDS011;4725;48.384;8.984;2022-08-18T13:51:09;5.32;;;4.82;;
9370;SDS011;4725;48.384;8.984;2022-08-18T13:53:43;5.70;;;5.20;;
9370;SDS011;4725;48.384;8.984;2022-08-18T13:56:11;7.47;;;5.85;;
9370;SDS011;4725;48.384;8.984;2022-08-18T13:58:38;5.85;;;5.45;;
9370;SDS011;4725;48.384;8.984;2022-08-18T14:01:05;9.57;;;6.60;;
9370;SDS011;4725;48.384;8.984;2022-08-18T14:03:33;10.13;;;6.43;;
9370;SDS011;4725;48.384;8.984;2022-08-18T14:06:02;6.47;;;5.88;;
9370;SDS011;4725;48.384;8.984;2022-08-18T14:08:30;6.45;;;5.95;;
9370;SDS011;4725;48.384;8.984;2022-08-18T14:10:59;6.50;;;5.97;;
9370;SDS011;4725;48.384;8.984;2022-08-18T14:13:27;7.03;;;6.22;;
9370;SDS011;4725;48.384;8.984;2022-08-18T14:15:56;10.35;;;6.15;;
9370;SDS011;4725;48.384;8.984;2022-08-18T14:18:25;6.80;;;6.10;;
9370;SDS011;4725;48.384;8.984;2022-08-18T14:20:53;7.00;;;6.45;;
9370;SDS011;4725;48.384;8.984;2022-08-18T14:23:38;10.45;;;6.95;;
9370;SDS011;4725;48.384;8.984;2022-08-18T14:26:25;7.82;;;6.85;;
9370;SDS011;4725;48.384;8.984;2022-08-18T14:29:10;6.90;;;6.28;;
9370;SDS011;4725;48.384;8.984;2022-08-18T14:31:36;8.38;;;6.05;;
9370;SDS011;4725;48.384;8.984;2022-08-18T14:34:03;7.05;;;6.30;;
9370;SDS011;4725;48.384;8.984;2022-08-18T14:36:30;8.07;;;6.45;;
9370;SDS011;4725;48.384;8.984;2022-08-18T14:38:57;7.75;;;6.93;;
9370;SDS011;4725;48.384;8.984;2022-08-18T14:41:26;8.82;;;6.82;;
9370;SDS011;4725;48.384;8.984;2022-08-18T14:43:54;7.78;;;6.72;;
9370;SDS011;4725;48.384;8.984;2022-08-18T14:46:22;8.15;;;6.80;;
9370;SDS011;4725;48.384;8.984;2022-08-18T14:48:49;7.30;;;6.45;;
9370;SDS011;4725;48.384;8.984;2022-08-18T14:51:16;7.53;;;6.47;;
9370;SDS011;4725;48.384;8.984;2022-08-18T14:53:43;6.82;;;6.20;;
9370;SDS011;4725;48.384;8.984;2022-08-18T14:56:09;8.30;;;6.13;;
9370;SDS011;4725;48.384;8.984;2022-08-18T14:58:38;7.88;;;7.10;;
9370;SDS011;4725;48.384;8.984;2022-08-18T15:01:07;10.10;;;6.97;;
9370;SDS011;4725;48.384;8.984;2022-08-18T15:03:37;8.35;;;6.70;;
9370;SDS011;4725;48.384;8.984;2022-08-18T15:06:06;9.93;;;7.07;;
9370;SDS011;4725;48.384;8.984;2022-08-18T15:08:35;7.70;;;6.30;;
9370;SDS011;4725;48.384;8.984;2022-08-18T15:11:04;6.95;;;6.32;;
9370;SDS011;4725;48.384;8.984;2022-08-18T15:13:32;6.70;;;6.13;;
9370;SDS011;4725;48.384;8.984;2022-08-18T15:16:03;7.28;;;6.32;;
9370;SDS011;4725;48.384;8.984;2022-08-18T15:18:35;7.15;;;6.45;;
9370;SDS011;4725;48.384;8.984;2022-08-18T15:21:02;6.75;;;6.07;;
9370;SDS011;4725;48.384;8.984;2022-08-18T15:23:47;6.82;;;6.13;;
9370;SDS011;4725;48.384;8.984;2022-08-18T15:26:31;7.47;;;6.72;;
9370;SDS011;4725;48.384;8.984;2022-08-18T15:28:58;7.00;;;6.25;;
9370;SDS011;4725;48.384;8.984;2022-08-18T15:31:26;6.85;;;6.22;;
9370;SDS011;4725;48.384;8.984;2022-08-18T15:33:53;6.68;;;5.65;;
9370;SDS011;4725;48.384;8.984;2022-08-18T15:36:20;7.88;;;6.20;;
9370;SDS011;4725;48.384;8.984;2022-08-18T15:38:48;7.95;;;6.18;;
9370;SDS011;4725;48.384;8.984;2022-08-18T15:41:25;7.30;;;5.90;;
9370;SDS011;4725;48.384;8.984;2022-08-18T15:43:54;6.35;;;5.72;;
9370;SDS011;4725;48.384;8.984;2022-08-18T15:46:22;6.00;;;5.47;;
9370;SDS011;4725;48.384;8.984;2022-08-18T15:48:50;9.48;;;5.63;;
9370;SDS011;4725;48.384;8.984;2022-08-18T15:51:18;7.15;;;5.75;;
9370;SDS011;4725;48.384;8.984;2022-08-18T15:53:45;6.18;;;5.68;;
9370;SDS011;4725;48.384;8.984;2022-08-18T15:56:13;6.75;;;6.15;;
9370;SDS011;4725;48.384;8.984;2022-08-18T15:58:41;7.28;;;5.90;;
9370;SDS011;4725;48.384;8.984;2022-08-18T16:01:08;6.72;;;5.70;;
9370;SDS011;4725;48.384;8.984;2022-08-18T16:03:36;6.68;;;5.85;;
9370;SDS011;4725;48.384;8.984;2022-08-18T16:06:05;7.45;;;5.38;;
9370;SDS011;4725;48.384;8.984;2022-08-18T16:08:32;6.00;;;5.50;;
9370;SDS011;4725;48.384;8.984;2022-08-18T16:11:05;6.38;;;5.57;;
9370;SDS011;4725;48.384;8.984;2022-08-18T16:13:32;6.03;;;5.43;;
9370;SDS011;4725;48.384;8.984;2022-08-18T16:15:59;7.63;;;5.03;;
9370;SDS011;4725;48.384;8.984;2022-08-18T16:18:34;6.35;;;5.57;;
9370;SDS011;4725;48.384;8.984;2022-08-18T16:21:02;5.88;;;5.40;;